sensor_id;sensor_type;location;lat;lon;timestamp;pressure;altitude;pressure_sealevel;temperature;humidity
56912;BME280;42800;53.928;27.662;2023-03-04T00:00:32;97658.56;;;1.86;100.00
56912;BME280;42800;53.928;27.662;2023-03-04T00:02:58;97624.41;;;1.94;100.00
56912;BME280;42800;53.928;27.662;2023-03-04T00:05:25;97638.00;;;1.69;100.00
56912;BME280;42800;53.928;27.662;2023-03-04T00:07:51;97642.56;;;1.53;100.00
56912;BME280;42800;53.928;27.662;2023-03-04T00:10:17;97649.78;;;1.49;100.00
56912;BME280;42800;53.928;27.662;2023-03-04T00:12:44;97648.78;;;1.81;100.00
56912;BME280;42800;53.928;27.662;2023-03-04T00:15:10;97615.47;;;1.77;100.00
56912;BME280;42800;53.928;27.662;2023-03-04T00:17:36;97606.69;;;1.80;100.00
56912;BME280;42800;53.928;27.662;2023-03-04T00:20:03;97547.94;;;1.49;100.00
56912;BME280;42800;53.928;27.662;2023-03-04T00:22:30;97628.69;;;1.67;100.00
56912;BME280;42800;53.928;27.662;2023-03-04T00:24:56;97661.09;;;1.67;100.00
56912;BME280;42800;53.928;27.662;2023-03-04T00:27:22;97653.03;;;1.54;100.00
56912;BME280;42800;53.928;27.662;2023-03-04T00:29:48;97694.78;;;1.57;100.00
56912;BME280;42800;53.928;27.662;2023-03-04T00:32:15;97730.22;;;1.68;100.00
56912;BME280;42800;53.928;27.662;2023-03-04T00:34:42;97801.81;;;1.49;100.00
56912;BME280;42800;53.928;27.662;2023-03-04T00:37:08;97864.53;;;1.09;100.00
56912;BME280;42800;53.928;27.662;2023-03-04T00:39:35;97950.28;;;1.58;100.00
56912;BME280;42800;53.928;27.662;2023-03-04T00:42:02;97950.63;;;1.23;100.00
56912;BME280;42800;53.928;27.662;2023-03-04T00:44:28;97987.97;;;1.21;100.00
56912;BME280;42800;53.928;27.662;2023-03-04T00:46:54;98049.38;;;1.45;100.00
56912;BME280;42800;53.928;27.662;2023-03-04T00:49:20;98032.44;;;1.57;100.00
56912;BME280;42800;53.928;27.662;2023-03-04T00:51:47;98001.59;;;1.25;100.00
56912;BME280;42800;53.928;27.662;2023-03-04T00:54:13;98051.19;;;1.20;100.00
56912;BME280;42800;53.928;27.662;2023-03-04T00:56:40;98067.19;;;1.25;100.00
56912;BME280;42800;53.928;27.662;2023-03-04T00:59:06;98069.81;;;1.13;100.00
56912;BME280;42800;53.928;27.662;2023-03-04T01:01:32;98087.78;;;1.09;100.00
56912;BME280;42800;53.928;27.662;2023-03-04T01:03:58;98097.13;;;0.90;100.00
56912;BME280;42800;53.928;27.662;2023-03-04T01:06:25;98098.13;;;1.07;100.00
56912;BME280;42800;53.928;27.662;2023-03-04T01:08:51;98109.66;;;1.16;100.00
56912;BME280;42800;53.928;27.662;2023-03-04T01:11:17;98110.63;;;1.32;100.00
56912;BME280;42800;53.928;27.662;2023-03-04T01:13:44;98091.53;;;0.96;100.00
56912;BME280;42800;53.928;27.662;2023-03-04T01:16:10;98089.56;;;0.84;100.00
56912;BME280;42800;53.928;27.662;2023-03-04T01:18:37;98102.44;;;0.99;100.00
56912;BME280;42800;53.928;27.662;2023-03-04T01:21:04;98099.06;;;1.32;100.00
56912;BME280;42800;53.928;27.662;2023-03-04T01:23:31;98085.28;;;1.25;100.00
56912;BME280;42800;53.928;27.662;2023-03-04T01:25:57;98088.31;;;0.73;100.00
56912;BME280;42800;53.928;27.662;2023-03-04T01:28:23;98090.50;;;0.79;100.00
56912;BME280;42800;53.928;27.662;2023-03-04T01:30:50;98082.03;;;0.89;100.00
56912;BME280;42800;53.928;27.662;2023-03-04T01:33:16;98086.72;;;1.01;100.00
56912;BME280;42800;53.928;27.662;2023-03-04T01:35:42;98071.38;;;0.93;100.00
56912;BME280;42800;53.928;27.662;2023-03-04T01:38:09;98078.38;;;0.94;100.00
56912;BME280;42800;53.928;27.662;2023-03-04T01:40:36;98068.06;;;1.17;100.00
56912;BME280;42800;53.928;27.662;2023-03-04T01:43:02;98071.31;;;1.02;100.00
56912;BME280;42800;53.928;27.662;2023-03-04T01:45:29;98051.44;;;1.06;100.00
56912;BME280;42800;53.928;27.662;2023-03-04T01:47:57;98048.16;;;1.22;100.00
56912;BME280;42800;53.928;27.662;2023-03-04T01:50:28;98049.22;;;0.87;100.00
56912;BME280;42800;53.928;27.662;2023-03-04T01:52:55;98042.44;;;1.02;100.00
56912;BME280;42800;53.928;27.662;2023-03-04T01:55:23;98051.63;;;1.22;100.00
56912;BME280;42800;53.928;27.662;2023-03-04T01:57:50;98038.41;;;0.87;100.00
56912;BME280;42800;53.928;27.662;2023-03-04T02:00:28;98034.19;;;0.78;100.00
56912;BME280;42800;53.928;27.662;2023-03-04T02:02:59;98005.69;;;0.68;100.00
56912;BME280;42800;53.928;27.662;2023-03-04T02:05:26;97999.13;;;0.78;100.00
56912;BME280;42800;53.928;27.662;2023-03-04T02:07:54;97980.09;;;0.74;100.00
56912;BME280;42800;53.928;27.662;2023-03-04T02:10:21;97989.63;;;0.92;100.00
56912;BME280;42800;53.928;27.662;2023-03-04T02:12:47;97999.50;;;0.67;100.00
56912;BME280;42800;53.928;27.662;2023-03-04T02:15:14;97997.78;;;0.63;100.00
56912;BME280;42800;53.928;27.662;2023-03-04T02:17:40;98008.06;;;0.69;100.00
56912;BME280;42800;53.928;27.662;2023-03-04T02:20:14;97999.91;;;0.78;100.00
56912;BME280;42800;53.928;27.662;2023-03-04T02:22:48;97998.28;;;1.07;100.00
56912;BME280;42800;53.928;27.662;2023-03-04T02:25:20;98003.91;;;1.14;100.00
56912;BME280;42800;53.928;27.662;2023-03-04T02:27:48;98012.09;;;0.84;100.00
56912;BME280;42800;53.928;27.662;2023-03-04T02:32:41;98005.66;;;0.98;100.00
56912;BME280;42800;53.928;27.662;2023-03-04T02:35:08;97993.00;;;0.89;100.00
56912;BME280;42800;53.928;27.662;2023-03-04T02:37:39;97984.84;;;0.98;100.00
56912;BME280;42800;53.928;27.662;2023-03-04T02:40:07;97980.16;;;1.07;100.00
56912;BME280;42800;53.928;27.662;2023-03-04T02:42:34;97974.34;;;0.97;100.00
56912;BME280;42800;53.928;27.662;2023-03-04T02:45:01;97955.41;;;1.05;100.00
56912;BME280;42800;53.928;27.662;2023-03-04T02:47:28;97929.47;;;0.92;100.00
56912;BME280;42800;53.928;27.662;2023-03-04T02:49:54;97920.59;;;0.91;100.00
56912;BME280;42800;53.928;27.662;2023-03-04T02:52:23;97905.63;;;0.82;100.00
56912;BME280;42800;53.928;27.662;2023-03-04T02:54:50;97883.66;;;1.04;100.00
56912;BME280;42800;53.928;27.662;2023-03-04T02:57:16;97853.03;;;0.88;100.00
56912;BME280;42800;53.928;27.662;2023-03-04T02:59:42;97840.38;;;1.01;100.00
56912;BME280;42800;53.928;27.662;2023-03-04T03:02:10;97835.28;;;0.87;100.00
56912;BME280;42800;53.928;27.662;2023-03-04T03:04:38;97808.91;;;0.72;100.00
56912;BME280;42800;53.928;27.662;2023-03-04T03:07:05;97818.63;;;0.85;100.00
56912;BME280;42800;53.928;27.662;2023-03-04T03:09:31;97787.81;;;0.86;100.00
56912;BME280;42800;53.928;27.662;2023-03-04T03:11:57;97782.25;;;0.58;100.00
56912;BME280;42800;53.928;27.662;2023-03-04T03:14:24;97786.72;;;0.87;100.00
56912;BME280;42800;53.928;27.662;2023-03-04T03:16:50;97753.78;;;0.93;100.00
56912;BME280;42800;53.928;27.662;2023-03-04T03:19:17;97728.25;;;0.91;100.00
56912;BME280;42800;53.928;27.662;2023-03-04T03:21:43;97722.16;;;1.06;100.00
56912;BME280;42800;53.928;27.662;2023-03-04T03:24:09;97707.34;;;1.00;100.00
56912;BME280;42800;53.928;27.662;2023-03-04T03:26:35;97700.25;;;1.08;100.00
56912;BME280;42800;53.928;27.662;2023-03-04T03:29:01;97666.31;;;0.70;100.00
56912;BME280;42800;53.928;27.662;2023-03-04T03:31:28;97639.06;;;0.63;100.00
56912;BME280;42800;53.928;27.662;2023-03-04T03:33:54;97668.97;;;0.58;100.00
56912;BME280;42800;53.928;27.662;2023-03-04T03:36:21;97692.78;;;0.56;100.00
56912;BME280;42800;53.928;27.662;2023-03-04T03:38:47;97696.66;;;1.04;100.00
56912;BME280;42800;53.928;27.662;2023-03-04T03:41:13;97662.03;;;0.81;100.00
56912;BME280;42800;53.928;27.662;2023-03-04T03:43:39;97658.75;;;0.76;100.00
56912;BME280;42800;53.928;27.662;2023-03-04T03:46:05;97641.56;;;0.68;100.00
56912;BME280;42800;53.928;27.662;2023-03-04T03:48:32;97649.63;;;0.56;100.00
56912;BME280;42800;53.928;27.662;2023-03-04T03:50:58;97673.47;;;0.66;100.00
56912;BME280;42800;53.928;27.662;2023-03-04T03:53:25;97642.81;;;0.70;100.00
56912;BME280;42800;53.928;27.662;2023-03-04T03:55:51;97643.81;;;0.66;100.00
56912;BME280;42800;53.928;27.662;2023-03-04T03:58:17;97625.38;;;0.68;100.00
56912;BME280;42800;53.928;27.662;2023-03-04T04:00:43;97603.66;;;1.01;100.00
56912;BME280;42800;53.928;27.662;2023-03-04T04:03:11;97578.97;;;0.62;100.00
56912;BME280;42800;53.928;27.662;2023-03-04T04:05:39;97585.03;;;0.72;100.00
56912;BME280;42800;53.928;27.662;2023-03-04T04:08:05;97552.09;;;0.78;100.00
56912;BME280;42800;53.928;27.662;2023-03-04T04:10:32;97516.53;;;1.01;100.00
56912;BME280;42800;53.928;27.662;2023-03-04T04:12:58;97455.63;;;0.87;100.00
56912;BME280;42800;53.928;27.662;2023-03-04T04:15:24;97427.22;;;0.78;100.00
56912;BME280;42800;53.928;27.662;2023-03-04T04:17:51;97424.53;;;0.78;100.00
56912;BME280;42800;53.928;27.662;2023-03-04T04:20:17;97410.59;;;0.76;100.00
56912;BME280;42800;53.928;27.662;2023-03-04T04:22:43;97413.53;;;0.70;100.00
56912;BME280;42800;53.928;27.662;2023-03-04T04:25:09;97410.69;;;0.79;100.00
56912;BME280;42800;53.928;27.662;2023-03-04T04:27:36;97387.28;;;0.55;100.00
56912;BME280;42800;53.928;27.662;2023-03-04T04:30:03;97371.16;;;0.71;100.00
56912;BME280;42800;53.928;27.662;2023-03-04T04:32:29;97343.66;;;1.09;100.00
56912;BME280;42800;53.928;27.662;2023-03-04T04:34:56;97291.66;;;0.81;100.00
56912;BME280;42800;53.928;27.662;2023-03-04T04:37:22;97294.69;;;0.79;100.00
56912;BME280;42800;53.928;27.662;2023-03-04T04:39:48;97334.56;;;0.86;100.00
56912;BME280;42800;53.928;27.662;2023-03-04T04:42:16;97283.69;;;1.00;100.00
56912;BME280;42800;53.928;27.662;2023-03-04T04:44:43;97238.31;;;0.74;100.00
56912;BME280;42800;53.928;27.662;2023-03-04T04:47:10;97253.38;;;0.91;100.00
56912;BME280;42800;53.928;27.662;2023-03-04T04:49:36;97219.44;;;0.90;100.00
56912;BME280;42800;53.928;27.662;2023-03-04T04:52:02;97175.66;;;0.97;100.00
56912;BME280;42800;53.928;27.662;2023-03-04T04:54:29;97156.97;;;0.88;100.00
56912;BME280;42800;53.928;27.662;2023-03-04T04:56:55;97180.38;;;0.68;100.00
56912;BME280;42800;53.928;27.662;2023-03-04T04:59:21;97226.13;;;0.64;100.00
56912;BME280;42800;53.928;27.662;2023-03-04T05:01:48;97240.31;;;0.93;100.00
56912;BME280;42800;53.928;27.662;2023-03-04T05:04:15;97240.56;;;0.72;100.00
56912;BME280;42800;53.928;27.662;2023-03-04T05:06:41;97268.16;;;0.81;100.00
56912;BME280;42800;53.928;27.662;2023-03-04T05:09:07;97292.38;;;0.93;100.00
56912;BME280;42800;53.928;27.662;2023-03-04T05:11:33;97233.88;;;0.82;100.00
56912;BME280;42800;53.928;27.662;2023-03-04T05:13:59;97266.91;;;0.63;100.00
56912;BME280;42800;53.928;27.662;2023-03-04T05:16:26;97345.28;;;0.98;100.00
56912;BME280;42800;53.928;27.662;2023-03-04T05:18:53;97299.72;;;0.65;100.00
56912;BME280;42800;53.928;27.662;2023-03-04T05:21:19;97335.25;;;0.67;100.00
56912;BME280;42800;53.928;27.662;2023-03-04T05:23:45;97342.16;;;0.80;100.00
56912;BME280;42800;53.928;27.662;2023-03-04T05:26:13;97363.81;;;0.56;100.00
56912;BME280;42800;53.928;27.662;2023-03-04T05:28:40;97404.25;;;0.56;100.00
56912;BME280;42800;53.928;27.662;2023-03-04T05:31:06;97430.22;;;0.88;100.00
56912;BME280;42800;53.928;27.662;2023-03-04T05:33:33;97374.16;;;0.82;100.00
56912;BME280;42800;53.928;27.662;2023-03-04T05:36:03;97360.88;;;0.61;100.00
56912;BME280;42800;53.928;27.662;2023-03-04T05:38:30;97371.31;;;0.90;100.00
56912;BME280;42800;53.928;27.662;2023-03-04T05:40:57;97338.53;;;0.60;100.00
56912;BME280;42800;53.928;27.662;2023-03-04T05:43:24;97340.28;;;0.68;100.00
56912;BME280;42800;53.928;27.662;2023-03-04T05:45:50;97303.50;;;0.92;100.00
56912;BME280;42800;53.928;27.662;2023-03-04T05:48:16;97243.53;;;0.99;100.00
56912;BME280;42800;53.928;27.662;2023-03-04T05:50:43;97168.63;;;0.92;100.00
56912;BME280;42800;53.928;27.662;2023-03-04T05:53:10;97139.06;;;1.15;100.00
56912;BME280;42800;53.928;27.662;2023-03-04T05:55:36;97055.53;;;1.22;100.00
56912;BME280;42800;53.928;27.662;2023-03-04T05:58:02;97015.56;;;1.08;100.00
56912;BME280;42800;53.928;27.662;2023-03-04T06:00:28;97004.25;;;1.22;100.00
56912;BME280;42800;53.928;27.662;2023-03-04T06:02:55;96983.75;;;1.17;100.00
56912;BME280;42800;53.928;27.662;2023-03-04T06:05:21;96955.81;;;1.29;100.00
56912;BME280;42800;53.928;27.662;2023-03-04T06:07:47;96978.91;;;1.27;100.00
56912;BME280;42800;53.928;27.662;2023-03-04T06:12:41;96921.75;;;1.21;100.00
56912;BME280;42800;53.928;27.662;2023-03-04T06:15:08;96933.09;;;1.30;100.00
56912;BME280;42800;53.928;27.662;2023-03-04T06:17:35;96915.34;;;1.10;100.00
56912;BME280;42800;53.928;27.662;2023-03-04T06:20:02;96935.38;;;1.51;100.00
56912;BME280;42800;53.928;27.662;2023-03-04T06:22:29;96896.13;;;1.57;100.00
56912;BME280;42800;53.928;27.662;2023-03-04T06:24:55;96844.06;;;1.34;100.00
56912;BME280;42800;53.928;27.662;2023-03-04T06:27:22;96906.88;;;1.54;100.00
56912;BME280;42800;53.928;27.662;2023-03-04T06:29:49;96866.00;;;1.55;100.00
56912;BME280;42800;53.928;27.662;2023-03-04T06:32:15;96841.38;;;1.83;100.00
56912;BME280;42800;53.928;27.662;2023-03-04T06:34:41;96842.25;;;1.41;100.00
56912;BME280;42800;53.928;27.662;2023-03-04T06:37:07;96821.47;;;1.69;100.00
56912;BME280;42800;53.928;27.662;2023-03-04T06:39:33;96805.44;;;1.56;100.00
56912;BME280;42800;53.928;27.662;2023-03-04T06:42:00;96796.16;;;1.54;100.00
56912;BME280;42800;53.928;27.662;2023-03-04T06:44:26;96807.13;;;1.64;100.00
56912;BME280;42800;53.928;27.662;2023-03-04T06:46:53;96813.44;;;2.02;100.00
56912;BME280;42800;53.928;27.662;2023-03-04T06:49:19;96773.56;;;1.65;100.00
56912;BME280;42800;53.928;27.662;2023-03-04T06:51:45;96786.53;;;1.56;100.00
56912;BME280;42800;53.928;27.662;2023-03-04T06:54:11;96898.09;;;1.83;100.00
56912;BME280;42800;53.928;27.662;2023-03-04T06:56:38;96962.28;;;1.25;100.00
56912;BME280;42800;53.928;27.662;2023-03-04T06:59:04;97082.41;;;1.54;100.00
56912;BME280;42800;53.928;27.662;2023-03-04T07:01:31;97137.78;;;1.63;100.00
56912;BME280;42800;53.928;27.662;2023-03-04T07:03:57;97132.38;;;1.63;100.00
56912;BME280;42800;53.928;27.662;2023-03-04T07:06:25;97080.53;;;1.77;100.00
56912;BME280;42800;53.928;27.662;2023-03-04T07:08:53;97054.75;;;1.60;100.00
56912;BME280;42800;53.928;27.662;2023-03-04T07:11:20;97096.06;;;1.61;100.00
56912;BME280;42800;53.928;27.662;2023-03-04T07:13:47;97060.13;;;1.80;100.00
56912;BME280;42800;53.928;27.662;2023-03-04T07:16:15;97021.06;;;1.74;100.00
56912;BME280;42800;53.928;27.662;2023-03-04T07:18:43;97083.41;;;1.65;100.00
56912;BME280;42800;53.928;27.662;2023-03-04T07:21:10;97254.25;;;1.27;100.00
56912;BME280;42800;53.928;27.662;2023-03-04T07:23:37;97425.34;;;1.22;100.00
56912;BME280;42800;53.928;27.662;2023-03-04T07:26:03;97528.44;;;1.40;100.00
56912;BME280;42800;53.928;27.662;2023-03-04T07:28:30;97577.91;;;1.44;100.00
56912;BME280;42800;53.928;27.662;2023-03-04T07:30:56;97606.59;;;1.36;100.00
56912;BME280;42800;53.928;27.662;2023-03-04T07:33:22;97629.41;;;0.62;100.00
56912;BME280;42800;53.928;27.662;2023-03-04T07:35:57;97642.34;;;1.05;100.00
56912;BME280;42800;53.928;27.662;2023-03-04T07:38:24;97637.94;;;1.13;100.00
56912;BME280;42800;53.928;27.662;2023-03-04T07:40:54;97636.63;;;1.07;100.00
56912;BME280;42800;53.928;27.662;2023-03-04T07:43:20;97615.88;;;1.23;100.00
56912;BME280;42800;53.928;27.662;2023-03-04T07:45:47;97617.75;;;1.47;100.00
56912;BME280;42800;53.928;27.662;2023-03-04T07:48:13;97623.94;;;1.35;100.00
56912;BME280;42800;53.928;27.662;2023-03-04T07:50:39;97630.59;;;1.38;100.00
56912;BME280;42800;53.928;27.662;2023-03-04T07:53:06;97618.84;;;1.46;100.00
56912;BME280;42800;53.928;27.662;2023-03-04T07:55:32;97639.94;;;1.28;100.00
56912;BME280;42800;53.928;27.662;2023-03-04T07:57:59;97631.38;;;1.26;100.00
56912;BME280;42800;53.928;27.662;2023-03-04T08:00:25;97632.34;;;0.81;100.00
56912;BME280;42800;53.928;27.662;2023-03-04T08:02:51;97633.81;;;0.91;100.00
56912;BME280;42800;53.928;27.662;2023-03-04T08:05:17;97639.53;;;1.14;100.00
56912;BME280;42800;53.928;27.662;2023-03-04T08:07:44;97643.69;;;0.99;100.00
56912;BME280;42800;53.928;27.662;2023-03-04T08:10:11;97652.66;;;1.03;100.00
56912;BME280;42800;53.928;27.662;2023-03-04T08:12:37;97663.38;;;0.87;100.00
56912;BME280;42800;53.928;27.662;2023-03-04T08:15:04;97668.16;;;0.45;100.00
56912;BME280;42800;53.928;27.662;2023-03-04T08:17:31;97676.25;;;0.45;100.00
56912;BME280;42800;53.928;27.662;2023-03-04T08:19:57;97681.38;;;0.26;100.00
56912;BME280;42800;53.928;27.662;2023-03-04T08:22:23;97669.03;;;-0.09;100.00
56912;BME280;42800;53.928;27.662;2023-03-04T08:24:49;97678.91;;;-0.34;100.00
56912;BME280;42800;53.928;27.662;2023-03-04T08:27:16;97690.53;;;-0.42;100.00
56912;BME280;42800;53.928;27.662;2023-03-04T08:29:42;97689.38;;;0.01;100.00
56912;BME280;42800;53.928;27.662;2023-03-04T08:32:09;97664.69;;;-0.01;100.00
56912;BME280;42800;53.928;27.662;2023-03-04T08:34:38;97677.78;;;0.21;100.00
56912;BME280;42800;53.928;27.662;2023-03-04T08:37:04;97662.56;;;0.62;100.00
56912;BME280;42800;53.928;27.662;2023-03-04T08:39:30;97646.38;;;1.11;100.00
56912;BME280;42800;53.928;27.662;2023-03-04T08:41:57;97593.63;;;1.14;100.00
56912;BME280;42800;53.928;27.662;2023-03-04T08:44:24;97533.88;;;1.72;100.00
56912;BME280;42800;53.928;27.662;2023-03-04T08:46:51;97425.13;;;1.91;100.00
56912;BME280;42800;53.928;27.662;2023-03-04T08:49:17;97282.09;;;1.82;100.00
56912;BME280;42800;53.928;27.662;2023-03-04T08:51:43;97124.78;;;2.11;100.00
56912;BME280;42800;53.928;27.662;2023-03-04T08:54:10;96878.41;;;2.40;100.00
56912;BME280;42800;53.928;27.662;2023-03-04T08:56:36;96634.72;;;3.62;100.00
56912;BME280;42800;53.928;27.662;2023-03-04T08:59:03;96305.59;;;4.31;100.00
56912;BME280;42800;53.928;27.662;2023-03-04T09:01:30;96238.69;;;4.80;100.00
56912;BME280;42800;53.928;27.662;2023-03-04T09:03:56;96318.72;;;5.17;100.00
56912;BME280;42800;53.928;27.662;2023-03-04T09:06:22;96386.31;;;5.63;100.00
56912;BME280;42800;53.928;27.662;2023-03-04T09:08:48;96489.81;;;6.43;100.00
56912;BME280;42800;53.928;27.662;2023-03-04T09:11:15;96608.53;;;6.78;100.00
56912;BME280;42800;53.928;27.662;2023-03-04T09:13:41;96604.63;;;6.79;100.00
56912;BME280;42800;53.928;27.662;2023-03-04T09:16:09;96662.88;;;6.92;100.00
56912;BME280;42800;53.928;27.662;2023-03-04T09:18:37;96717.91;;;7.21;100.00
56912;BME280;42800;53.928;27.662;2023-03-04T09:21:04;96754.28;;;7.45;100.00
56912;BME280;42800;53.928;27.662;2023-03-04T09:23:32;96775.97;;;7.63;100.00
56912;BME280;42800;53.928;27.662;2023-03-04T09:26:00;96744.34;;;7.24;100.00
56912;BME280;42800;53.928;27.662;2023-03-04T09:28:26;96767.00;;;7.14;100.00
56912;BME280;42800;53.928;27.662;2023-03-04T09:30:52;96742.16;;;6.39;100.00
56912;BME280;42800;53.928;27.662;2023-03-04T09:33:18;96708.22;;;6.61;100.00
56912;BME280;42800;53.928;27.662;2023-03-04T09:35:45;96739.88;;;7.00;100.00
56912;BME280;42800;53.928;27.662;2023-03-04T09:38:13;96785.19;;;6.69;100.00
56912;BME280;42800;53.928;27.662;2023-03-04T09:40:41;96761.16;;;6.46;100.00
56912;BME280;42800;53.928;27.662;2023-03-04T09:43:13;96765.94;;;6.24;100.00
56912;BME280;42800;53.928;27.662;2023-03-04T09:45:46;96723.16;;;6.31;100.00
56912;BME280;42800;53.928;27.662;2023-03-04T09:48:16;96743.00;;;6.98;100.00
56912;BME280;42800;53.928;27.662;2023-03-04T09:50:51;96729.47;;;6.00;100.00
56912;BME280;42800;53.928;27.662;2023-03-04T09:53:21;96777.19;;;7.03;100.00
56912;BME280;42800;53.928;27.662;2023-03-04T09:55:49;96786.97;;;6.05;100.00
56912;BME280;42800;53.928;27.662;2023-03-04T09:58:27;96778.59;;;6.59;100.00
56912;BME280;42800;53.928;27.662;2023-03-04T10:01:02;96744.47;;;6.47;100.00
56912;BME280;42800;53.928;27.662;2023-03-04T10:03:41;96720.53;;;6.10;100.00
56912;BME280;42800;53.928;27.662;2023-03-04T10:06:14;96730.47;;;6.42;100.00
56912;BME280;42800;53.928;27.662;2023-03-04T10:08:50;96760.00;;;6.50;100.00
56912;BME280;42800;53.928;27.662;2023-03-04T10:11:22;96713.53;;;6.79;100.00
56912;BME280;42800;53.928;27.662;2023-03-04T10:14:01;96707.03;;;6.62;100.00
56912;BME280;42800;53.928;27.662;2023-03-04T10:16:33;96727.56;;;5.86;100.00
56912;BME280;42800;53.928;27.662;2023-03-04T10:19:08;96678.91;;;6.17;100.00
56912;BME280;42800;53.928;27.662;2023-03-04T10:21:44;96699.91;;;6.09;100.00
56912;BME280;42800;53.928;27.662;2023-03-04T10:24:12;96656.63;;;6.43;100.00
56912;BME280;42800;53.928;27.662;2023-03-04T10:26:44;96716.34;;;7.24;100.00
56912;BME280;42800;53.928;27.662;2023-03-04T10:29:13;96692.38;;;7.01;100.00
56912;BME280;42800;53.928;27.662;2023-03-04T10:31:40;96715.53;;;6.75;100.00
56912;BME280;42800;53.928;27.662;2023-03-04T10:34:09;96710.19;;;5.19;100.00
56912;BME280;42800;53.928;27.662;2023-03-04T10:36:49;96670.75;;;6.17;100.00
56912;BME280;42800;53.928;27.662;2023-03-04T10:39:23;96649.09;;;6.62;100.00
56912;BME280;42800;53.928;27.662;2023-03-04T10:41:58;96655.88;;;6.35;100.00
56912;BME280;42800;53.928;27.662;2023-03-04T10:44:27;96685.47;;;7.34;100.00
56912;BME280;42800;53.928;27.662;2023-03-04T10:47:00;96714.31;;;6.79;100.00
56912;BME280;42800;53.928;27.662;2023-03-04T10:49:28;96732.28;;;6.66;100.00
56912;BME280;42800;53.928;27.662;2023-03-04T10:52:00;96730.81;;;6.54;100.00
56912;BME280;42800;53.928;27.662;2023-03-04T10:54:31;96701.03;;;6.22;100.00
56912;BME280;42800;53.928;27.662;2023-03-04T10:57:02;96727.25;;;6.65;100.00
56912;BME280;42800;53.928;27.662;2023-03-04T10:59:42;96740.06;;;6.71;100.00
56912;BME280;42800;53.928;27.662;2023-03-04T11:02:25;96749.63;;;6.13;100.00
56912;BME280;42800;53.928;27.662;2023-03-04T11:04:55;96731.47;;;6.73;100.00
56912;BME280;42800;53.928;27.662;2023-03-04T11:07:24;96748.59;;;6.77;97.13
56912;BME280;42800;53.928;27.662;2023-03-04T11:09:50;96745.53;;;6.64;100.00
56912;BME280;42800;53.928;27.662;2023-03-04T11:12:20;96742.56;;;6.37;100.00
56912;BME280;42800;53.928;27.662;2023-03-04T11:14:47;96746.56;;;5.89;100.00
56912;BME280;42800;53.928;27.662;2023-03-04T11:17:20;96723.00;;;5.04;100.00
56912;BME280;42800;53.928;27.662;2023-03-04T11:19:50;96700.50;;;5.25;100.00
56912;BME280;42800;53.928;27.662;2023-03-04T11:22:19;96644.63;;;4.99;100.00
56912;BME280;42800;53.928;27.662;2023-03-04T11:24:55;96663.66;;;4.99;100.00
56912;BME280;42800;53.928;27.662;2023-03-04T11:27:39;96633.41;;;4.97;100.00
56912;BME280;42800;53.928;27.662;2023-03-04T11:30:23;96590.31;;;4.03;100.00
56912;BME280;42800;53.928;27.662;2023-03-04T11:32:55;96515.19;;;3.92;100.00
56912;BME280;42800;53.928;27.662;2023-03-04T11:35:31;96519.41;;;3.72;100.00
56912;BME280;42800;53.928;27.662;2023-03-04T11:38:04;96606.56;;;3.01;100.00
56912;BME280;42800;53.928;27.662;2023-03-04T11:40:38;96609.56;;;2.89;100.00
56912;BME280;42800;53.928;27.662;2023-03-04T11:43:11;96603.06;;;2.49;100.00
56912;BME280;42800;53.928;27.662;2023-03-04T11:45:52;96598.91;;;2.14;100.00
56912;BME280;42800;53.928;27.662;2023-03-04T11:48:32;96543.75;;;2.22;100.00
56912;BME280;42800;53.928;27.662;2023-03-04T11:51:06;96529.44;;;2.18;100.00
56912;BME280;42800;53.928;27.662;2023-03-04T11:53:41;96507.19;;;1.87;100.00
56912;BME280;42800;53.928;27.662;2023-03-04T11:56:23;96418.34;;;2.34;100.00
56912;BME280;42800;53.928;27.662;2023-03-04T11:59:23;96346.50;;;2.36;100.00
56912;BME280;42800;53.928;27.662;2023-03-04T12:02:06;96333.31;;;2.24;100.00
56912;BME280;42800;53.928;27.662;2023-03-04T12:08:07;96351.00;;;2.07;100.00
56912;BME280;42800;53.928;27.662;2023-03-04T12:10:45;96338.38;;;2.36;100.00
56912;BME280;42800;53.928;27.662;2023-03-04T12:13:29;96398.38;;;2.60;100.00
56912;BME280;42800;53.928;27.662;2023-03-04T12:16:10;96348.81;;;2.34;100.00
56912;BME280;42800;53.928;27.662;2023-03-04T12:18:54;96231.19;;;1.78;100.00
56912;BME280;42800;53.928;27.662;2023-03-04T12:21:30;96241.91;;;1.05;100.00
56912;BME280;42800;53.928;27.662;2023-03-04T12:24:18;96504.13;;;0.84;100.00
56912;BME280;42800;53.928;27.662;2023-03-04T12:26:50;96573.09;;;0.59;100.00
56912;BME280;42800;53.928;27.662;2023-03-04T12:29:26;96491.16;;;0.93;100.00
56912;BME280;42800;53.928;27.662;2023-03-04T12:32:02;96448.16;;;1.08;100.00
56912;BME280;42800;53.928;27.662;2023-03-04T12:34:40;96328.69;;;1.11;100.00
56912;BME280;42800;53.928;27.662;2023-03-04T12:37:32;96226.25;;;0.74;100.00
56912;BME280;42800;53.928;27.662;2023-03-04T12:40:15;96176.16;;;0.73;100.00
56912;BME280;42800;53.928;27.662;2023-03-04T12:42:55;96162.25;;;0.67;100.00
56912;BME280;42800;53.928;27.662;2023-03-04T12:45:29;96141.06;;;0.69;100.00
56912;BME280;42800;53.928;27.662;2023-03-04T12:48:26;96150.72;;;0.70;100.00
56912;BME280;42800;53.928;27.662;2023-03-04T12:51:01;96167.19;;;0.58;100.00
56912;BME280;42800;53.928;27.662;2023-03-04T12:53:36;96163.59;;;0.46;100.00
56912;BME280;42800;53.928;27.662;2023-03-04T12:56:20;96159.31;;;0.38;100.00
56912;BME280;42800;53.928;27.662;2023-03-04T12:58:47;96181.81;;;0.19;100.00
56912;BME280;42800;53.928;27.662;2023-03-04T13:01:21;96200.47;;;0.35;100.00
56912;BME280;42800;53.928;27.662;2023-03-04T13:03:54;96242.00;;;-0.03;100.00
56912;BME280;42800;53.928;27.662;2023-03-04T13:06:31;96549.19;;;-0.58;100.00